sensor_id;sensor_type;location;lat;lon;timestamp;P1;durP1;ratioP1;P2;durP2;ratioP2
66402;SDS011;53212;52.112;5.144;2023-09-08T00:02:07;6.90;;;6.40;;
66402;SDS011;53212;52.112;5.144;2023-09-08T00:04:32;6.90;;;6.30;;
66402;SDS011;53212;52.112;5.144;2023-09-08T00:06:59;7.20;;;6.50;;
66402;SDS011;53212;52.112;5.144;2023-09-08T00:09:24;7.40;;;6.60;;
66402;SDS011;53212;52.112;5.144;2023-09-08T00:11:50;8.00;;;6.90;;
66402;SDS011;53212;52.112;5.144;2023-09-08T00:14:15;9.50;;;7.40;;
66402;SDS011;53212;52.112;5.144;2023-09-08T00:16:40;7.80;;;7.10;;
66402;SDS011;53212;52.112;5.144;2023-09-08T00:19:08;9.40;;;7.60;;
66402;SDS011;53212;52.112;5.144;2023-09-08T00:21:36;8.00;;;7.30;;
66402;SDS011;53212;52.112;5.144;2023-09-08T00:24:02;8.20;;;6.70;;
66402;SDS011;53212;52.112;5.144;2023-09-08T00:26:29;7.70;;;6.50;;
66402;SDS011;53212;52.112;5.144;2023-09-08T00:28:55;8.10;;;7.40;;
66402;SDS011;53212;52.112;5.144;2023-09-08T00:31:20;8.50;;;7.00;;
66402;SDS011;53212;52.112;5.144;2023-09-08T00:33:46;10.20;;;6.70;;
66402;SDS011;53212;52.112;5.144;2023-09-08T00:36:11;7.70;;;7.00;;
66402;SDS011;53212;52.112;5.144;2023-09-08T00:38:36;8.40;;;6.50;;
66402;SDS011;53212;52.112;5.144;2023-09-08T00:41:04;7.80;;;7.00;;
66402;SDS011;53212;52.112;5.144;2023-09-08T00:43:30;7.70;;;6.50;;
66402;SDS011;53212;52.112;5.144;2023-09-08T00:45:56;7.80;;;6.60;;
66402;SDS011;53212;52.112;5.144;2023-09-08T00:48:24;7.30;;;6.60;;
66402;SDS011;53212;52.112;5.144;2023-09-08T00:50:50;7.50;;;6.90;;
66402;SDS011;53212;52.112;5.144;2023-09-08T00:53:16;8.60;;;6.70;;
66402;SDS011;53212;52.112;5.144;2023-09-08T00:55:42;7.50;;;6.90;;
66402;SDS011;53212;52.112;5.144;2023-09-08T00:58:07;8.20;;;7.50;;
66402;SDS011;53212;52.112;5.144;2023-09-08T01:00:33;8.40;;;7.50;;
66402;SDS011;53212;52.112;5.144;2023-09-08T01:02:59;7.30;;;6.70;;
66402;SDS011;53212;52.112;5.144;2023-09-08T01:05:25;8.90;;;6.90;;
66402;SDS011;53212;52.112;5.144;2023-09-08T01:07:51;8.10;;;7.40;;
66402;SDS011;53212;52.112;5.144;2023-09-08T01:10:18;7.60;;;6.90;;
66402;SDS011;53212;52.112;5.144;2023-09-08T01:12:43;8.90;;;7.60;;
66402;SDS011;53212;52.112;5.144;2023-09-08T01:15:09;8.10;;;7.30;;
66402;SDS011;53212;52.112;5.144;2023-09-08T01:17:34;8.90;;;8.10;;
66402;SDS011;53212;52.112;5.144;2023-09-08T01:20:06;8.50;;;7.60;;
66402;SDS011;53212;52.112;5.144;2023-09-08T01:22:51;9.30;;;7.50;;
66402;SDS011;53212;52.112;5.144;2023-09-08T01:25:29;7.90;;;7.20;;
66402;SDS011;53212;52.112;5.144;2023-09-08T01:28:00;10.30;;;8.10;;
66402;SDS011;53212;52.112;5.144;2023-09-08T01:30:27;9.30;;;8.00;;
66402;SDS011;53212;52.112;5.144;2023-09-08T01:32:57;9.30;;;7.60;;
66402;SDS011;53212;52.112;5.144;2023-09-08T01:35:24;9.70;;;8.10;;
66402;SDS011;53212;52.112;5.144;2023-09-08T01:37:50;9.30;;;7.80;;
66402;SDS011;53212;52.112;5.144;2023-09-08T01:40:15;9.50;;;7.80;;
66402;SDS011;53212;52.112;5.144;2023-09-08T01:42:41;8.40;;;7.60;;
66402;SDS011;53212;52.112;5.144;2023-09-08T01:45:08;8.70;;;7.80;;
66402;SDS011;53212;52.112;5.144;2023-09-08T01:47:33;8.80;;;8.00;;
66402;SDS011;53212;52.112;5.144;2023-09-08T01:50:00;8.90;;;8.00;;
66402;SDS011;53212;52.112;5.144;2023-09-08T01:52:26;10.60;;;8.20;;
66402;SDS011;53212;52.112;5.144;2023-09-08T01:54:52;8.30;;;7.50;;
66402;SDS011;53212;52.112;5.144;2023-09-08T01:57:18;9.20;;;8.20;;
66402;SDS011;53212;52.112;5.144;2023-09-08T01:59:44;8.50;;;7.70;;
66402;SDS011;53212;52.112;5.144;2023-09-08T02:02:10;9.10;;;8.20;;
66402;SDS011;53212;52.112;5.144;2023-09-08T02:04:36;9.60;;;7.90;;
66402;SDS011;53212;52.112;5.144;2023-09-08T02:07:02;11.40;;;8.70;;
66402;SDS011;53212;52.112;5.144;2023-09-08T02:09:36;9.50;;;8.60;;
66402;SDS011;53212;52.112;5.144;2023-09-08T02:12:03;8.90;;;7.90;;
66402;SDS011;53212;52.112;5.144;2023-09-08T02:14:29;8.70;;;7.80;;
66402;SDS011;53212;52.112;5.144;2023-09-08T02:16:55;9.20;;;8.30;;
66402;SDS011;53212;52.112;5.144;2023-09-08T02:19:21;9.00;;;7.80;;
66402;SDS011;53212;52.112;5.144;2023-09-08T02:21:47;11.40;;;7.60;;
66402;SDS011;53212;52.112;5.144;2023-09-08T02:24:12;8.40;;;7.60;;
66402;SDS011;53212;52.112;5.144;2023-09-08T02:26:38;8.10;;;6.90;;
66402;SDS011;53212;52.112;5.144;2023-09-08T02:29:04;9.10;;;8.10;;
66402;SDS011;53212;52.112;5.144;2023-09-08T02:31:30;10.50;;;8.10;;
66402;SDS011;53212;52.112;5.144;2023-09-08T02:33:55;10.40;;;8.40;;
66402;SDS011;53212;52.112;5.144;2023-09-08T02:36:21;9.00;;;8.20;;
66402;SDS011;53212;52.112;5.144;2023-09-08T02:38:54;9.30;;;7.90;;
66402;SDS011;53212;52.112;5.144;2023-09-08T02:41:21;10.10;;;9.10;;
66402;SDS011;53212;52.112;5.144;2023-09-08T02:43:47;8.60;;;7.80;;
66402;SDS011;53212;52.112;5.144;2023-09-08T02:46:13;9.00;;;8.10;;
66402;SDS011;53212;52.112;5.144;2023-09-08T02:48:39;11.30;;;8.80;;
66402;SDS011;53212;52.112;5.144;2023-09-08T02:51:05;9.40;;;8.30;;
66402;SDS011;53212;52.112;5.144;2023-09-08T02:53:31;10.40;;;9.40;;
66402;SDS011;53212;52.112;5.144;2023-09-08T02:55:57;12.00;;;9.20;;
66402;SDS011;53212;52.112;5.144;2023-09-08T02:58:24;10.30;;;9.20;;
66402;SDS011;53212;52.112;5.144;2023-09-08T03:00:50;10.60;;;9.50;;
66402;SDS011;53212;52.112;5.144;2023-09-08T03:03:17;10.80;;;9.20;;
66402;SDS011;53212;52.112;5.144;2023-09-08T03:05:43;11.80;;;9.30;;
66402;SDS011;53212;52.112;5.144;2023-09-08T03:08:09;10.10;;;9.20;;
66402;SDS011;53212;52.112;5.144;2023-09-08T03:10:34;11.70;;;8.80;;
66402;SDS011;53212;52.112;5.144;2023-09-08T03:13:01;10.60;;;9.00;;
66402;SDS011;53212;52.112;5.144;2023-09-08T03:15:26;10.30;;;9.40;;
66402;SDS011;53212;52.112;5.144;2023-09-08T03:17:55;10.80;;;9.70;;
66402;SDS011;53212;52.112;5.144;2023-09-08T03:20:22;12.50;;;9.30;;
66402;SDS011;53212;52.112;5.144;2023-09-08T03:22:47;9.70;;;8.80;;
66402;SDS011;53212;52.112;5.144;2023-09-08T03:25:14;11.90;;;9.50;;
66402;SDS011;53212;52.112;5.144;2023-09-08T03:27:40;10.70;;;9.60;;
66402;SDS011;53212;52.112;5.144;2023-09-08T03:30:06;9.30;;;8.50;;
66402;SDS011;53212;52.112;5.144;2023-09-08T03:32:32;11.20;;;10.30;;
66402;SDS011;53212;52.112;5.144;2023-09-08T03:34:57;10.50;;;9.50;;
66402;SDS011;53212;52.112;5.144;2023-09-08T03:37:23;14.10;;;10.40;;
66402;SDS011;53212;52.112;5.144;2023-09-08T03:39:50;10.70;;;9.70;;
66402;SDS011;53212;52.112;5.144;2023-09-08T03:42:15;12.90;;;10.30;;
66402;SDS011;53212;52.112;5.144;2023-09-08T03:44:41;11.80;;;10.40;;
66402;SDS011;53212;52.112;5.144;2023-09-08T03:47:06;10.90;;;9.90;;
66402;SDS011;53212;52.112;5.144;2023-09-08T03:49:31;11.10;;;9.90;;
66402;SDS011;53212;52.112;5.144;2023-09-08T03:51:58;11.00;;;9.90;;
66402;SDS011;53212;52.112;5.144;2023-09-08T03:54:23;10.90;;;9.60;;
66402;SDS011;53212;52.112;5.144;2023-09-08T03:56:49;11.90;;;10.30;;
66402;SDS011;53212;52.112;5.144;2023-09-08T03:59:14;10.70;;;9.80;;
66402;SDS011;53212;52.112;5.144;2023-09-08T04:01:40;11.30;;;10.20;;
66402;SDS011;53212;52.112;5.144;2023-09-08T04:04:05;11.80;;;9.90;;
66402;SDS011;53212;52.112;5.144;2023-09-08T04:06:30;11.70;;;10.60;;
66402;SDS011;53212;52.112;5.144;2023-09-08T04:08:56;11.40;;;10.30;;
66402;SDS011;53212;52.112;5.144;2023-09-08T04:11:21;10.80;;;9.80;;
66402;SDS011;53212;52.112;5.144;2023-09-08T04:13:47;12.70;;;10.70;;
66402;SDS011;53212;52.112;5.144;2023-09-08T04:16:12;12.60;;;10.80;;
66402;SDS011;53212;52.112;5.144;2023-09-08T04:18:37;11.30;;;10.20;;
66402;SDS011;53212;52.112;5.144;2023-09-08T04:21:05;13.50;;;10.60;;
66402;SDS011;53212;52.112;5.144;2023-09-08T04:23:31;13.20;;;11.00;;
66402;SDS011;53212;52.112;5.144;2023-09-08T04:25:57;11.50;;;10.40;;
66402;SDS011;53212;52.112;5.144;2023-09-08T04:28:22;12.40;;;11.00;;
66402;SDS011;53212;52.112;5.144;2023-09-08T04:30:47;12.00;;;10.20;;
66402;SDS011;53212;52.112;5.144;2023-09-08T04:33:13;11.90;;;10.30;;
66402;SDS011;53212;52.112;5.144;2023-09-08T04:35:38;12.30;;;10.90;;
66402;SDS011;53212;52.112;5.144;2023-09-08T04:38:04;13.20;;;11.50;;
66402;SDS011;53212;52.112;5.144;2023-09-08T04:40:29;14.20;;;11.00;;
66402;SDS011;53212;52.112;5.144;2023-09-08T04:42:55;11.90;;;10.70;;
66402;SDS011;53212;52.112;5.144;2023-09-08T04:45:20;11.70;;;10.60;;
66402;SDS011;53212;52.112;5.144;2023-09-08T04:47:46;12.20;;;10.60;;
66402;SDS011;53212;52.112;5.144;2023-09-08T04:50:12;12.40;;;11.30;;
66402;SDS011;53212;52.112;5.144;2023-09-08T04:52:37;12.10;;;10.70;;
66402;SDS011;53212;52.112;5.144;2023-09-08T04:55:03;11.00;;;9.90;;
66402;SDS011;53212;52.112;5.144;2023-09-08T04:57:28;12.60;;;11.30;;
66402;SDS011;53212;52.112;5.144;2023-09-08T04:59:54;12.30;;;11.00;;
66402;SDS011;53212;52.112;5.144;2023-09-08T05:02:19;16.50;;;11.80;;
66402;SDS011;53212;52.112;5.144;2023-09-08T05:04:45;12.60;;;11.10;;
66402;SDS011;53212;52.112;5.144;2023-09-08T05:07:10;12.60;;;11.40;;
66402;SDS011;53212;52.112;5.144;2023-09-08T05:09:37;15.70;;;11.40;;
66402;SDS011;53212;52.112;5.144;2023-09-08T05:12:03;14.80;;;11.90;;
66402;SDS011;53212;52.112;5.144;2023-09-08T05:14:28;14.30;;;12.00;;
66402;SDS011;53212;52.112;5.144;2023-09-08T05:16:54;13.70;;;12.30;;
66402;SDS011;53212;52.112;5.144;2023-09-08T05:19:21;13.60;;;12.10;;
66402;SDS011;53212;52.112;5.144;2023-09-08T05:21:50;14.30;;;12.20;;
66402;SDS011;53212;52.112;5.144;2023-09-08T05:24:16;13.90;;;12.50;;
66402;SDS011;53212;52.112;5.144;2023-09-08T05:26:42;13.10;;;11.80;;
66402;SDS011;53212;52.112;5.144;2023-09-08T05:29:07;12.20;;;11.00;;
66402;SDS011;53212;52.112;5.144;2023-09-08T05:31:33;13.60;;;12.30;;
66402;SDS011;53212;52.112;5.144;2023-09-08T05:33:58;12.10;;;10.80;;
66402;SDS011;53212;52.112;5.144;2023-09-08T05:36:24;12.50;;;11.30;;
66402;SDS011;53212;52.112;5.144;2023-09-08T05:38:49;12.70;;;11.50;;
66402;SDS011;53212;52.112;5.144;2023-09-08T05:41:15;13.10;;;11.70;;
66402;SDS011;53212;52.112;5.144;2023-09-08T05:43:40;12.40;;;11.00;;
66402;SDS011;53212;52.112;5.144;2023-09-08T05:46:06;13.80;;;12.30;;
66402;SDS011;53212;52.112;5.144;2023-09-08T05:48:31;13.50;;;11.20;;
66402;SDS011;53212;52.112;5.144;2023-09-08T05:50:57;12.60;;;11.10;;
66402;SDS011;53212;52.112;5.144;2023-09-08T05:53:22;13.20;;;11.10;;
66402;SDS011;53212;52.112;5.144;2023-09-08T05:55:48;13.40;;;11.40;;
66402;SDS011;53212;52.112;5.144;2023-09-08T05:58:13;13.20;;;11.80;;
66402;SDS011;53212;52.112;5.144;2023-09-08T06:00:39;13.70;;;11.50;;
66402;SDS011;53212;52.112;5.144;2023-09-08T06:03:04;12.10;;;10.80;;
66402;SDS011;53212;52.112;5.144;2023-09-08T06:05:30;13.10;;;11.80;;
66402;SDS011;53212;52.112;5.144;2023-09-08T06:07:55;12.60;;;11.40;;
66402;SDS011;53212;52.112;5.144;2023-09-08T06:10:21;13.40;;;12.10;;
66402;SDS011;53212;52.112;5.144;2023-09-08T06:12:46;16.50;;;11.80;;
66402;SDS011;53212;52.112;5.144;2023-09-08T06:15:15;13.20;;;11.80;;
66402;SDS011;53212;52.112;5.144;2023-09-08T06:17:42;14.80;;;11.90;;
66402;SDS011;53212;52.112;5.144;2023-09-08T06:20:08;13.30;;;11.90;;
66402;SDS011;53212;52.112;5.144;2023-09-08T06:22:34;12.40;;;11.10;;
66402;SDS011;53212;52.112;5.144;2023-09-08T06:24:59;13.10;;;11.70;;
66402;SDS011;53212;52.112;5.144;2023-09-08T06:27:24;13.40;;;12.00;;
66402;SDS011;53212;52.112;5.144;2023-09-08T06:29:50;12.60;;;11.20;;
66402;SDS011;53212;52.112;5.144;2023-09-08T06:32:16;13.40;;;12.10;;
66402;SDS011;53212;52.112;5.144;2023-09-08T06:34:41;14.30;;;12.00;;
66402;SDS011;53212;52.112;5.144;2023-09-08T06:37:08;13.40;;;12.00;;
66402;SDS011;53212;52.112;5.144;2023-09-08T06:39:33;14.90;;;12.60;;
66402;SDS011;53212;52.112;5.144;2023-09-08T06:41:59;12.80;;;11.60;;
66402;SDS011;53212;52.112;5.144;2023-09-08T06:44:24;17.30;;;12.80;;
66402;SDS011;53212;52.112;5.144;2023-09-08T06:46:50;13.10;;;11.00;;
66402;SDS011;53212;52.112;5.144;2023-09-08T06:49:16;13.00;;;11.70;;
66402;SDS011;53212;52.112;5.144;2023-09-08T06:51:41;13.80;;;11.60;;
66402;SDS011;53212;52.112;5.144;2023-09-08T06:54:07;12.90;;;11.70;;
66402;SDS011;53212;52.112;5.144;2023-09-08T06:56:32;13.60;;;12.10;;
66402;SDS011;53212;52.112;5.144;2023-09-08T06:58:58;14.10;;;12.40;;
66402;SDS011;53212;52.112;5.144;2023-09-08T07:01:24;14.20;;;13.00;;
66402;SDS011;53212;52.112;5.144;2023-09-08T07:03:49;14.30;;;12.90;;
66402;SDS011;53212;52.112;5.144;2023-09-08T07:06:15;13.50;;;12.10;;
66402;SDS011;53212;52.112;5.144;2023-09-08T07:08:41;14.90;;;13.40;;
66402;SDS011;53212;52.112;5.144;2023-09-08T07:11:07;16.10;;;13.50;;
66402;SDS011;53212;52.112;5.144;2023-09-08T07:13:33;14.10;;;12.60;;
66402;SDS011;53212;52.112;5.144;2023-09-08T07:15:59;13.60;;;12.30;;
66402;SDS011;53212;52.112;5.144;2023-09-08T07:18:24;14.00;;;12.70;;
66402;SDS011;53212;52.112;5.144;2023-09-08T07:20:50;15.00;;;13.50;;
66402;SDS011;53212;52.112;5.144;2023-09-08T07:23:18;17.00;;;13.10;;
66402;SDS011;53212;52.112;5.144;2023-09-08T07:25:47;15.60;;;13.40;;
66402;SDS011;53212;52.112;5.144;2023-09-08T07:28:15;14.70;;;13.30;;
66402;SDS011;53212;52.112;5.144;2023-09-08T07:30:41;14.10;;;12.80;;
66402;SDS011;53212;52.112;5.144;2023-09-08T07:33:07;15.50;;;13.80;;
66402;SDS011;53212;52.112;5.144;2023-09-08T07:35:36;15.50;;;12.80;;
66402;SDS011;53212;52.112;5.144;2023-09-08T07:38:05;15.90;;;13.90;;
66402;SDS011;53212;52.112;5.144;2023-09-08T07:40:33;14.50;;;13.00;;
66402;SDS011;53212;52.112;5.144;2023-09-08T07:42:59;14.50;;;13.10;;
66402;SDS011;53212;52.112;5.144;2023-09-08T07:45:24;14.50;;;13.00;;
66402;SDS011;53212;52.112;5.144;2023-09-08T07:47:50;14.40;;;12.90;;
66402;SDS011;53212;52.112;5.144;2023-09-08T07:50:24;14.20;;;12.80;;
66402;SDS011;53212;52.112;5.144;2023-09-08T07:52:52;14.00;;;12.60;;
66402;SDS011;53212;52.112;5.144;2023-09-08T07:55:18;13.90;;;12.50;;
66402;SDS011;53212;52.112;5.144;2023-09-08T07:57:45;16.00;;;12.90;;
66402;SDS011;53212;52.112;5.144;2023-09-08T08:00:11;15.30;;;12.80;;
66402;SDS011;53212;52.112;5.144;2023-09-08T08:02:42;15.60;;;14.00;;
66402;SDS011;53212;52.112;5.144;2023-09-08T08:05:10;14.50;;;13.10;;
66402;SDS011;53212;52.112;5.144;2023-09-08T08:07:36;13.40;;;12.10;;
66402;SDS011;53212;52.112;5.144;2023-09-08T08:10:03;13.60;;;12.30;;
66402;SDS011;53212;52.112;5.144;2023-09-08T08:12:28;13.70;;;12.50;;
66402;SDS011;53212;52.112;5.144;2023-09-08T08:14:54;14.00;;;12.60;;
66402;SDS011;53212;52.112;5.144;2023-09-08T08:17:19;13.80;;;12.60;;
66402;SDS011;53212;52.112;5.144;2023-09-08T08:19:45;13.80;;;12.30;;
66402;SDS011;53212;52.112;5.144;2023-09-08T08:22:11;17.00;;;13.30;;
66402;SDS011;53212;52.112;5.144;2023-09-08T08:24:36;15.20;;;13.40;;
66402;SDS011;53212;52.112;5.144;2023-09-08T08:27:02;18.60;;;13.30;;
66402;SDS011;53212;52.112;5.144;2023-09-08T08:29:28;14.20;;;12.20;;
66402;SDS011;53212;52.112;5.144;2023-09-08T08:31:54;12.90;;;11.60;;
66402;SDS011;53212;52.112;5.144;2023-09-08T08:34:20;13.30;;;12.00;;
66402;SDS011;53212;52.112;5.144;2023-09-08T08:36:46;15.40;;;11.30;;
66402;SDS011;53212;52.112;5.144;2023-09-08T08:39:11;13.80;;;12.40;;
66402;SDS011;53212;52.112;5.144;2023-09-08T08:41:36;13.70;;;11.90;;
66402;SDS011;53212;52.112;5.144;2023-09-08T08:44:07;12.90;;;11.70;;
66402;SDS011;53212;52.112;5.144;2023-09-08T08:46:34;12.90;;;11.60;;
66402;SDS011;53212;52.112;5.144;2023-09-08T08:49:03;12.80;;;11.50;;
66402;SDS011;53212;52.112;5.144;2023-09-08T08:51:32;15.40;;;12.10;;
66402;SDS011;53212;52.112;5.144;2023-09-08T08:54:00;13.60;;;11.50;;
66402;SDS011;53212;52.112;5.144;2023-09-08T08:56:30;13.70;;;11.40;;
66402;SDS011;53212;52.112;5.144;2023-09-08T08:58:57;12.00;;;10.90;;
66402;SDS011;53212;52.112;5.144;2023-09-08T09:01:24;11.90;;;10.50;;
66402;SDS011;53212;52.112;5.144;2023-09-08T09:03:51;12.40;;;10.60;;
66402;SDS011;53212;52.112;5.144;2023-09-08T09:06:17;12.60;;;10.80;;
66402;SDS011;53212;52.112;5.144;2023-09-08T09:08:44;12.40;;;11.30;;
66402;SDS011;53212;52.112;5.144;2023-09-08T09:11:10;12.40;;;11.20;;
66402;SDS011;53212;52.112;5.144;2023-09-08T09:13:37;11.70;;;10.40;;
66402;SDS011;53212;52.112;5.144;2023-09-08T09:16:03;13.20;;;10.80;;
66402;SDS011;53212;52.112;5.144;2023-09-08T09:18:30;11.80;;;10.50;;
66402;SDS011;53212;52.112;5.144;2023-09-08T09:20:58;11.80;;;10.10;;
66402;SDS011;53212;52.112;5.144;2023-09-08T09:23:29;11.60;;;10.30;;
66402;SDS011;53212;52.112;5.144;2023-09-08T09:26:00;13.10;;;10.80;;
66402;SDS011;53212;52.112;5.144;2023-09-08T09:28:29;12.20;;;11.10;;
66402;SDS011;53212;52.112;5.144;2023-09-08T09:30:55;13.30;;;10.70;;
66402;SDS011;53212;52.112;5.144;2023-09-08T09:33:21;11.60;;;10.40;;
66402;SDS011;53212;52.112;5.144;2023-09-08T09:35:49;11.40;;;10.30;;
66402;SDS011;53212;52.112;5.144;2023-09-08T09:38:17;9.70;;;8.90;;
66402;SDS011;53212;52.112;5.144;2023-09-08T09:40:44;12.90;;;9.50;;
66402;SDS011;53212;52.112;5.144;2023-09-08T09:43:11;11.80;;;9.50;;
66402;SDS011;53212;52.112;5.144;2023-09-08T09:45:38;10.50;;;8.80;;
66402;SDS011;53212;52.112;5.144;2023-09-08T09:48:06;9.80;;;8.80;;
66402;SDS011;53212;52.112;5.144;2023-09-08T09:50:36;10.60;;;9.60;;
66402;SDS011;53212;52.112;5.144;2023-09-08T09:53:14;10.70;;;9.70;;
66402;SDS011;53212;52.112;5.144;2023-09-08T09:55:42;9.40;;;8.30;;
66402;SDS011;53212;52.112;5.144;2023-09-08T09:58:10;9.00;;;7.60;;
66402;SDS011;53212;52.112;5.144;2023-09-08T10:00:36;8.80;;;7.70;;
66402;SDS011;53212;52.112;5.144;2023-09-08T10:03:06;10.20;;;8.20;;
66402;SDS011;53212;52.112;5.144;2023-09-08T10:05:32;10.00;;;8.50;;
66402;SDS011;53212;52.112;5.144;2023-09-08T10:07:58;9.80;;;8.00;;
66402;SDS011;53212;52.112;5.144;2023-09-08T10:10:24;12.00;;;8.40;;
66402;SDS011;53212;52.112;5.144;2023-09-08T10:12:54;9.20;;;8.30;;
66402;SDS011;53212;52.112;5.144;2023-09-08T10:15:23;10.00;;;8.00;;
66402;SDS011;53212;52.112;5.144;2023-09-08T10:17:58;8.20;;;7.30;;
66402;SDS011;53212;52.112;5.144;2023-09-08T10:20:26;9.10;;;7.60;;
66402;SDS011;53212;52.112;5.144;2023-09-08T10:23:03;7.90;;;7.10;;
66402;SDS011;53212;52.112;5.144;2023-09-08T10:25:35;8.50;;;6.60;;
66402;SDS011;53212;52.112;5.144;2023-09-08T10:28:06;9.00;;;8.20;;
66402;SDS011;53212;52.112;5.144;2023-09-08T10:30:33;9.60;;;8.10;;
66402;SDS011;53212;52.112;5.144;2023-09-08T10:32:59;9.00;;;7.40;;
66402;SDS011;53212;52.112;5.144;2023-09-08T10:35:26;9.00;;;7.70;;
66402;SDS011;53212;52.112;5.144;2023-09-08T10:38:48;12.40;;;7.60;;
66402;SDS011;53212;52.112;5.144;2023-09-08T10:40:52;9.00;;;7.00;;
66402;SDS011;53212;52.112;5.144;2023-09-08T10:43:38;16.40;;;7.40;;
66402;SDS011;53212;52.112;5.144;2023-09-08T10:46:08;8.40;;;7.20;;
66402;SDS011;53212;52.112;5.144;2023-09-08T10:48:43;8.50;;;7.40;;
66402;SDS011;53212;52.112;5.144;2023-09-08T10:51:16;9.20;;;7.60;;
66402;SDS011;53212;52.112;5.144;2023-09-08T10:53:42;8.40;;;7.60;;
66402;SDS011;53212;52.112;5.144;2023-09-08T10:56:11;9.50;;;8.40;;
66402;SDS011;53212;52.112;5.144;2023-09-08T10:58:37;7.90;;;7.10;;
66402;SDS011;53212;52.112;5.144;2023-09-08T11:01:15;8.30;;;6.90;;
66402;SDS011;53212;52.112;5.144;2023-09-08T11:03:44;8.80;;;6.80;;
66402;SDS011;53212;52.112;5.144;2023-09-08T11:06:12;8.70;;;7.90;;
66402;SDS011;53212;52.112;5.144;2023-09-08T11:08:39;8.60;;;7.70;;
66402;SDS011;53212;52.112;5.144;2023-09-08T11:11:07;10.10;;;7.60;;
66402;SDS011;53212;52.112;5.144;2023-09-08T11:13:33;7.60;;;6.90;;
66402;SDS011;53212;52.112;5.144;2023-09-08T11:15:58;9.70;;;8.40;;
66402;SDS011;53212;52.112;5.144;2023-09-08T11:18:30;9.30;;;8.30;;
66402;SDS011;53212;52.112;5.144;2023-09-08T11:20:58;7.10;;;6.40;;
66402;SDS011;53212;52.112;5.144;2023-09-08T11:23:24;9.50;;;7.50;;
66402;SDS011;53212;52.112;5.144;2023-09-08T11:25:50;9.80;;;8.60;;
66402;SDS011;53212;52.112;5.144;2023-09-08T11:28:26;11.90;;;7.90;;
66402;SDS011;53212;52.112;5.144;2023-09-08T11:30:53;7.00;;;6.30;;
66402;SDS011;53212;52.112;5.144;2023-09-08T11:33:21;8.70;;;6.10;;
66402;SDS011;53212;52.112;5.144;2023-09-08T11:35:52;8.90;;;6.80;;
66402;SDS011;53212;52.112;5.144;2023-09-08T11:38:28;7.40;;;6.70;;
66402;SDS011;53212;52.112;5.144;2023-09-08T11:40:57;9.00;;;7.50;;
66402;SDS011;53212;52.112;5.144;2023-09-08T11:43:23;8.50;;;6.00;;
66402;SDS011;53212;52.112;5.144;2023-09-08T11:45:49;6.30;;;5.50;;
66402;SDS011;53212;52.112;5.144;2023-09-08T11:48:15;6.40;;;5.10;;
66402;SDS011;53212;52.112;5.144;2023-09-08T11:50:42;8.10;;;5.00;;
66402;SDS011;53212;52.112;5.144;2023-09-08T11:53:09;5.30;;;4.80;;
66402;SDS011;53212;52.112;5.144;2023-09-08T11:55:34;8.50;;;5.80;;
66402;SDS011;53212;52.112;5.144;2023-09-08T11:58:02;6.60;;;5.00;;
66402;SDS011;53212;52.112;5.144;2023-09-08T12:00:28;10.10;;;6.60;;
66402;SDS011;53212;52.112;5.144;2023-09-08T12:02:54;5.80;;;5.20;;
66402;SDS011;53212;52.112;5.144;2023-09-08T12:05:22;5.90;;;5.40;;
66402;SDS011;53212;52.112;5.144;2023-09-08T12:07:53;7.00;;;5.30;;
66402;SDS011;53212;52.112;5.144;2023-09-08T12:10:20;7.90;;;5.90;;
66402;SDS011;53212;52.112;5.144;2023-09-08T12:12:49;5.90;;;5.00;;
66402;SDS011;53212;52.112;5.144;2023-09-08T12:15:49;5.60;;;4.60;;
66402;SDS011;53212;52.112;5.144;2023-09-08T12:18:14;7.20;;;4.70;;
66402;SDS011;53212;52.112;5.144;2023-09-08T12:20:40;6.80;;;4.80;;
66402;SDS011;53212;52.112;5.144;2023-09-08T12:23:20;5.20;;;4.70;;
66402;SDS011;53212;52.112;5.144;2023-09-08T12:25:48;8.50;;;5.00;;
66402;SDS011;53212;52.112;5.144;2023-09-08T12:28:16;8.70;;;5.20;;
66402;SDS011;53212;52.112;5.144;2023-09-08T12:30:43;8.70;;;5.10;;
66402;SDS011;53212;52.112;5.144;2023-09-08T12:33:09;6.90;;;5.10;;
66402;SDS011;53212;52.112;5.144;2023-09-08T12:35:42;7.10;;;5.00;;
66402;SDS011;53212;52.112;5.144;2023-09-08T12:38:09;6.30;;;4.90;;
66402;SDS011;53212;52.112;5.144;2023-09-08T12:40:35;8.00;;;5.90;;
66402;SDS011;53212;52.112;5.144;2023-09-08T12:43:03;7.20;;;5.80;;
66402;SDS011;53212;52.112;5.144;2023-09-08T12:45:30;6.30;;;5.60;;
66402;SDS011;53212;52.112;5.144;2023-09-08T12:47:58;8.20;;;5.00;;
66402;SDS011;53212;52.112;5.144;2023-09-08T12:50:27;6.00;;;5.30;;
66402;SDS011;53212;52.112;5.144;2023-09-08T12:52:52;6.50;;;5.10;;
66402;SDS011;53212;52.112;5.144;2023-09-08T12:55:18;8.00;;;5.10;;
66402;SDS011;53212;52.112;5.144;2023-09-08T12:57:44;5.40;;;5.00;;
66402;SDS011;53212;52.112;5.144;2023-09-08T13:00:10;4.60;;;3.90;;
66402;SDS011;53212;52.112;5.144;2023-09-08T13:02:35;7.60;;;4.60;;
66402;SDS011;53212;52.112;5.144;2023-09-08T13:05:02;5.00;;;4.60;;
66402;SDS011;53212;52.112;5.144;2023-09-08T13:07:28;5.40;;;4.10;;
66402;SDS011;53212;52.112;5.144;2023-09-08T13:09:54;5.10;;;4.60;;
66402;SDS011;53212;52.112;5.144;2023-09-08T13:12:19;5.30;;;4.40;;
66402;SDS011;53212;52.112;5.144;2023-09-08T13:14:45;5.10;;;4.60;;
66402;SDS011;53212;52.112;5.144;2023-09-08T13:17:11;4.90;;;4.40;;
66402;SDS011;53212;52.112;5.144;2023-09-08T13:19:37;4.30;;;3.90;;
66402;SDS011;53212;52.112;5.144;2023-09-08T13:22:04;5.00;;;4.60;;
66402;SDS011;53212;52.112;5.144;2023-09-08T13:24:30;5.60;;;4.40;;
66402;SDS011;53212;52.112;5.144;2023-09-08T13:26:55;5.30;;;4.00;;
66402;SDS011;53212;52.112;5.144;2023-09-08T13:29:21;6.40;;;4.60;;
66402;SDS011;53212;52.112;5.144;2023-09-08T13:31:46;5.30;;;4.40;;
66402;SDS011;53212;52.112;5.144;2023-09-08T13:34:12;4.60;;;4.00;;
66402;SDS011;53212;52.112;5.144;2023-09-08T13:36:37;4.00;;;3.70;;
66402;SDS011;53212;52.112;5.144;2023-09-08T13:39:03;5.60;;;4.20;;
66402;SDS011;53212;52.112;5.144;2023-09-08T13:41:52;4.40;;;3.90;;
66402;SDS011;53212;52.112;5.144;2023-09-08T13:44:19;4.30;;;3.90;;
66402;SDS011;53212;52.112;5.144;2023-09-08T13:46:46;7.10;;;4.40;;
66402;SDS011;53212;52.112;5.144;2023-09-08T13:49:12;4.90;;;4.40;;
66402;SDS011;53212;52.112;5.144;2023-09-08T13:51:38;5.70;;;4.60;;
66402;SDS011;53212;52.112;5.144;2023-09-08T13:54:04;4.50;;;4.10;;
66402;SDS011;53212;52.112;5.144;2023-09-08T13:56:30;4.70;;;4.10;;
66402;SDS011;53212;52.112;5.144;2023-09-08T13:58:55;7.00;;;4.20;;
66402;SDS011;53212;52.112;5.144;2023-09-08T14:01:20;5.60;;;4.30;;
66402;SDS011;53212;52.112;5.144;2023-09-08T14:03:46;5.90;;;4.20;;
66402;SDS011;53212;52.112;5.144;2023-09-08T14:06:11;4.60;;;3.80;;
66402;SDS011;53212;52.112;5.144;2023-09-08T14:08:37;6.60;;;3.80;;
66402;SDS011;53212;52.112;5.144;2023-09-08T14:11:02;4.70;;;4.30;;
66402;SDS011;53212;52.112;5.144;2023-09-08T14:13:28;5.00;;;4.50;;
66402;SDS011;53212;52.112;5.144;2023-09-08T14:15:54;7.20;;;4.50;;
66402;SDS011;53212;52.112;5.144;2023-09-08T14:18:19;4.80;;;3.90;;
66402;SDS011;53212;52.112;5.144;2023-09-08T14:20:44;4.40;;;3.50;;
66402;SDS011;53212;52.112;5.144;2023-09-08T14:23:10;4.90;;;3.40;;
66402;SDS011;53212;52.112;5.144;2023-09-08T14:25:36;6.50;;;3.70;;
66402;SDS011;53212;52.112;5.144;2023-09-08T14:28:01;4.00;;;3.60;;
66402;SDS011;53212;52.112;5.144;2023-09-08T14:30:28;5.00;;;3.90;;
66402;SDS011;53212;52.112;5.144;2023-09-08T14:32:55;6.10;;;3.90;;
66402;SDS011;53212;52.112;5.144;2023-09-08T14:35:20;5.60;;;4.00;;